Time;durP1;ratioP1;P1;durP2;ratioP2;P2;SDS_P1;SDS_P2;PMS_P1;PMS_P2;Temp;Humidity;BMP_temperature;BMP_pressure;BME280_temperature;BME280_humidity;BME280_pressure;Samples;Min_cycle;Max_cycle;Signal;HPM_P1;HPM_P2
2021/09/27 00:01:10;;;;;;;;;;;;;;;14.80;100.00;99223.00;112282;1193;66352;-84
2021/09/27 00:03:37;;;;;;;;;;;;;;;14.80;100.00;99218.34;112301;1193;61407;-84
2021/09/27 00:06:04;;;;;;;;;;;;;;;14.79;100.00;99215.23;112301;1193;63896;-84
2021/09/27 00:08:31;;;;;;;;;;;;;;;14.79;100.00;99215.60;112316;1193;61062;-84
2021/09/27 00:11:00;;;;;;;;;;;;;;;14.79;100.00;99218.30;112266;1193;61007;-84
2021/09/27 00:13:28;;;;;;;;;;;;;;;14.78;100.00;99219.24;112300;1193;65873;-84
2021/09/27 00:15:57;;;;;;;;;;;;;;;14.76;100.00;99215.12;112259;1193;61151;-83
2021/09/27 00:18:24;;;;;;;;;;;;;;;14.75;100.00;99217.03;112251;1194;63831;-84
2021/09/27 00:20:52;;;;;;;;;;;;;;;14.73;100.00;99219.80;112299;1193;61023;-83
2021/09/27 00:23:19;;;;;;;;;;;;;;;14.72;100.00;99222.41;112336;1193;61017;-84
2021/09/27 00:25:46;;;;;;;;;;;;;;;14.70;100.00;99224.29;112259;1194;66150;-84
2021/09/27 00:28:13;;;;;;;;;;;;;;;14.68;100.00;99226.08;112282;1193;60985;-84
2021/09/27 00:30:40;;;;;;;;;;;;;;;14.66;100.00;99222.35;112282;1193;65321;-83
2021/09/27 00:33:07;;;;;;;;;;;;;;;14.65;100.00;99223.97;112315;1193;60969;-83
2021/09/27 00:35:35;;;;;;;;;;;;;;;14.66;100.00;99227.17;112295;1193;61059;-84
2021/09/27 00:38:02;;;;;;;;;;;;;;;14.67;100.00;99219.77;112298;1193;65999;-84
2021/09/27 00:40:31;;;;;;;;;;;;;;;14.68;100.00;99224.45;112329;1193;61051;-83
2021/09/27 00:42:58;;;;;;;;;;;;;;;14.70;100.00;99223.04;112275;1193;62379;-84
2021/09/27 00:45:28;;;;;;;;;;;;;;;14.74;100.00;99226.52;112315;1193;61083;-84
2021/09/27 00:47:55;;;;;;;;;;;;;;;14.78;100.00;99223.50;112261;1196;61138;-84
2021/09/27 00:50:23;;;;;;;;;;;;;;;14.81;100.00;99227.60;112213;1194;61078;-84
2021/09/27 00:52:50;;;;;;;;;;;;;;;14.82;100.00;99227.28;112234;1193;61026;-84
2021/09/27 00:55:18;;;;;;;;;;;;;;;14.82;100.00;99224.39;112261;1193;63669;-83
2021/09/27 00:57:45;;;;;;;;;;;;;;;14.81;100.00;99223.25;112281;1193;61027;-83
2021/09/27 01:00:15;;;;;;;;;;;;;;;14.78;100.00;99219.77;112305;1193;60972;-83
2021/09/27 01:02:42;;;;;;;;;;;;;;;14.76;100.00;99220.16;112284;1193;64701;-83
2021/09/27 01:05:11;;;;;;;;;;;;;;;14.73;100.00;99217.46;112305;1194;61072;-84
2021/09/27 01:07:45;;;;;;;;;;;;;;;14.71;100.00;99214.41;112292;1193;62639;-84
2021/09/27 01:10:30;;;;;;;;;;;;;;;14.68;100.00;99211.46;112278;1193;61057;-84
2021/09/27 01:13:03;;;;;;;;;;;;;;;14.65;100.00;99210.42;112288;1193;60972;-85
2021/09/27 01:15:33;;;;;;;;;;;;;;;14.65;100.00;99211.48;112274;1193;66059;-82
2021/09/27 01:18:14;;;;;;;;;;;;;;;14.66;100.00;99209.25;112379;1193;61477;-85
2021/09/27 01:21:00;;;;;;;;;;;;;;;14.64;100.00;99204.95;112497;1193;64077;-85
2021/09/27 01:23:50;;;;;;;;;;;;;;;14.63;100.00;99201.27;112289;1193;61026;-85
2021/09/27 01:26:38;;;;;;;;;;;;;;;14.62;100.00;99205.11;112185;1193;60942;-84
2021/09/27 01:29:11;;;;;;;;;;;;;;;14.61;100.00;99205.38;112454;1193;65947;-85
2021/09/27 01:31:56;;;;;;;;;;;;;;;14.61;100.00;99206.85;112304;1193;61126;-84
2021/09/27 01:34:33;;;;;;;;;;;;;;;14.59;100.00;99204.52;112202;1193;64171;-84
2021/09/27 01:37:06;;;;;;;;;;;;;;;14.60;100.00;99202.26;112239;1193;61136;-84
2021/09/27 01:39:35;;;;;;;;;;;;;;;14.61;100.00;99201.29;112258;1193;61054;-84
2021/09/27 01:42:15;;;;;;;;;;;;;;;14.61;100.00;99204.85;112321;1193;64636;-83
2021/09/27 01:44:51;;;;;;;;;;;;;;;14.63;100.00;99207.69;112337;1193;61158;-83
2021/09/27 01:47:36;;;;;;;;;;;;;;;14.63;100.00;99204.70;112304;1194;62679;-83
2021/09/27 01:50:06;;;;;;;;;;;;;;;14.62;100.00;99202.26;112304;1193;61148;-83
2021/09/27 01:52:37;;;;;;;;;;;;;;;14.62;100.00;99199.63;112268;1193;61046;-83
2021/09/27 01:55:11;;;;;;;;;;;;;;;14.59;100.00;99198.75;112293;1193;65705;-83
2021/09/27 01:57:42;;;;;;;;;;;;;;;14.56;100.00;99205.06;112288;1193;60971;-83
2021/09/27 02:00:34;;;;;;;;;;;;;;;14.56;100.00;99206.16;112256;1193;62677;-83
2021/09/27 02:03:03;;;;;;;;;;;;;;;14.55;100.00;99206.97;112296;1193;61046;-83
2021/09/27 02:05:40;;;;;;;;;;;;;;;14.54;100.00;99210.64;112265;1193;61510;-83
2021/09/27 02:08:08;;;;;;;;;;;;;;;14.53;100.00;99208.39;112278;1193;66015;-83
2021/09/27 02:10:40;;;;;;;;;;;;;;;14.52;100.00;99202.92;112295;1193;61127;-83
2021/09/27 02:13:14;;;;;;;;;;;;;;;14.53;100.00;99204.45;112313;1193;62732;-83
2021/09/27 02:15:44;;;;;;;;;;;;;;;14.53;100.00;99203.02;112320;1193;61058;-83
2021/09/27 02:18:33;;;;;;;;;;;;;;;14.53;100.00;99197.45;112288;1193;61603;-83
2021/09/27 02:21:06;;;;;;;;;;;;;;;14.53;100.00;99192.23;112292;1193;64660;-83
2021/09/27 02:23:45;;;;;;;;;;;;;;;14.55;100.00;99193.55;112265;1193;60860;-83
2021/09/27 02:26:13;;;;;;;;;;;;;;;14.56;100.00;99190.80;112307;1193;64759;-83
2021/09/27 02:28:40;;;;;;;;;;;;;;;14.56;100.00;99189.36;112310;1193;61055;-84
2021/09/27 02:31:10;;;;;;;;;;;;;;;14.57;100.00;99188.05;112276;1193;61056;-83
2021/09/27 02:33:57;;;;;;;;;;;;;;;14.57;100.00;99190.11;112352;1193;66115;-84
2021/09/27 02:36:27;;;;;;;;;;;;;;;14.59;100.00;99192.34;112181;1193;60972;-84
2021/09/27 02:38:59;;;;;;;;;;;;;;;14.61;100.00;99191.45;112303;1193;64126;-84
2021/09/27 02:41:35;;;;;;;;;;;;;;;14.61;100.00;99187.35;112284;1193;60998;-84
2021/09/27 02:44:02;;;;;;;;;;;;;;;14.60;100.00;99187.21;112321;1193;61061;-84
2021/09/27 02:46:30;;;;;;;;;;;;;;;14.61;100.00;99182.53;112266;1193;66168;-85
2021/09/27 02:49:09;;;;;;;;;;;;;;;14.61;100.00;99185.00;112304;1193;60943;-84
2021/09/27 02:51:41;;;;;;;;;;;;;;;14.61;100.00;99187.15;112308;1193;62496;-85
2021/09/27 02:54:09;;;;;;;;;;;;;;;14.63;100.00;99187.02;112275;1193;60981;-84
2021/09/27 02:56:41;;;;;;;;;;;;;;;14.65;100.00;99187.02;112305;1193;61046;-84
2021/09/27 02:59:08;;;;;;;;;;;;;;;14.66;100.00;99187.64;112299;1193;64519;-84
2021/09/27 03:01:49;;;;;;;;;;;;;;;14.65;100.00;99191.96;112312;1193;61046;-84
2021/09/27 03:04:38;;;;;;;;;;;;;;;14.67;100.00;99187.77;112263;1193;62619;-85
2021/09/27 03:07:08;;;;;;;;;;;;;;;14.68;100.00;99186.95;112301;1193;61068;-84
2021/09/27 03:09:38;;;;;;;;;;;;;;;14.65;100.00;99188.45;112284;1193;61088;-84
2021/09/27 03:12:11;;;;;;;;;;;;;;;14.61;100.00;99186.45;112312;1193;67020;-83
2021/09/27 03:14:43;;;;;;;;;;;;;;;14.56;100.00;99186.51;112275;1193;61028;-83
2021/09/27 03:17:20;;;;;;;;;;;;;;;14.50;100.00;99184.02;112242;1193;64074;-83
2021/09/27 03:20:02;;;;;;;;;;;;;;;14.47;100.00;99185.92;112268;1193;60957;-83
2021/09/27 03:22:39;;;;;;;;;;;;;;;14.43;100.00;99184.77;112315;1193;61215;-83
2021/09/27 03:25:11;;;;;;;;;;;;;;;14.40;100.00;99182.90;112304;1193;65833;-83
2021/09/27 03:27:56;;;;;;;;;;;;;;;14.37;100.00;99180.85;112274;1193;61056;-84
2021/09/27 03:30:43;;;;;;;;;;;;;;;14.34;100.00;99179.46;112279;1193;62458;-84
2021/09/27 03:33:16;;;;;;;;;;;;;;;14.32;100.00;99178.16;112294;1193;61046;-83
2021/09/27 03:36:01;;;;;;;;;;;;;;;14.33;100.00;99174.20;112287;1193;61187;-83
2021/09/27 03:38:33;;;;;;;;;;;;;;;14.35;100.00;99171.15;112253;1196;65920;-83
2021/09/27 03:41:00;;;;;;;;;;;;;;;14.37;100.00;99165.09;112296;1193;61052;-84
2021/09/27 03:43:34;;;;;;;;;;;;;;;14.37;100.00;99159.17;112276;1193;61058;-84
2021/09/27 03:46:10;;;;;;;;;;;;;;;14.36;100.00;99161.45;112272;1193;61065;-85
2021/09/27 03:48:42;;;;;;;;;;;;;;;14.34;100.00;99159.06;112304;1193;61069;-83
2021/09/27 03:51:25;;;;;;;;;;;;;;;14.32;100.00;99158.16;112231;1197;66021;-83
2021/09/27 03:53:55;;;;;;;;;;;;;;;14.31;100.00;99157.67;112275;1193;61042;-84
2021/09/27 03:56:41;;;;;;;;;;;;;;;14.31;100.00;99158.58;112272;1193;64376;-83
2021/09/27 03:59:13;;;;;;;;;;;;;;;14.32;100.00;99159.11;112244;1193;61058;-84
2021/09/27 04:01:48;;;;;;;;;;;;;;;14.33;100.00;99151.66;112319;1193;60950;-84
2021/09/27 04:04:34;;;;;;;;;;;;;;;14.32;100.00;99152.04;112302;1193;66109;-84
2021/09/27 04:07:18;;;;;;;;;;;;;;;14.29;100.00;99151.21;112335;1193;61044;-83
2021/09/27 04:09:49;;;;;;;;;;;;;;;14.26;100.00;99153.41;112235;1193;62626;-84
2021/09/27 04:12:24;;;;;;;;;;;;;;;14.25;100.00;99155.30;112218;1193;60982;-84
2021/09/27 04:14:54;;;;;;;;;;;;;;;14.24;100.00;99151.62;112279;1193;61020;-85
2021/09/27 04:17:20;;;;;;;;;;;;;;;14.25;100.00;99148.70;112332;1193;64728;-83
2021/09/27 04:19:47;;;;;;;;;;;;;;;14.28;100.00;99151.34;112727;1193;60991;-86
2021/09/27 04:22:22;;;;;;;;;;;;;;;14.31;100.00;99155.73;112284;1193;61062;-86
2021/09/27 04:25:01;;;;;;;;;;;;;;;14.34;100.00;99159.27;112338;1193;60982;-85
2021/09/27 04:27:33;;;;;;;;;;;;;;;14.35;100.00;99159.35;112310;1193;60947;-85
2021/09/27 04:30:09;;;;;;;;;;;;;;;14.36;100.00;99163.55;112281;1193;75011;-83
2021/09/27 04:33:02;;;;;;;;;;;;;;;14.38;100.00;99166.09;112288;1193;61286;-85
2021/09/27 04:35:31;;;;;;;;;;;;;;;14.39;100.00;99170.62;112292;1193;62608;-84
2021/09/27 04:37:59;;;;;;;;;;;;;;;14.41;100.00;99174.56;112287;1193;61052;-85
2021/09/27 04:40:38;;;;;;;;;;;;;;;14.41;100.00;99178.35;112311;1193;60988;-85
2021/09/27 04:43:16;;;;;;;;;;;;;;;14.37;100.00;99179.59;112259;1193;66018;-85
2021/09/27 04:45:51;;;;;;;;;;;;;;;14.31;100.00;99179.31;112255;1197;61052;-85
2021/09/27 04:48:21;;;;;;;;;;;;;;;14.28;100.00;99184.73;112320;1193;62640;-85
2021/09/27 04:50:47;;;;;;;;;;;;;;;14.25;100.00;99189.46;112302;1193;61061;-85
2021/09/27 04:53:38;;;;;;;;;;;;;;;14.22;100.00;99192.72;112290;1193;61206;-85
2021/09/27 04:56:14;;;;;;;;;;;;;;;14.21;100.00;99191.20;112241;1194;66111;-85
2021/09/27 04:58:50;;;;;;;;;;;;;;;14.21;100.00;99190.48;112302;1193;61029;-84
2021/09/27 05:01:27;;;;;;;;;;;;;;;14.22;100.00;99187.92;112274;1193;63914;-84
2021/09/27 05:03:59;;;;;;;;;;;;;;;14.21;100.00;99195.08;112314;1193;61054;-85
2021/09/27 05:06:26;;;;;;;;;;;;;;;14.21;100.00;99196.54;112297;1193;61056;-84
2021/09/27 05:09:04;;;;;;;;;;;;;;;14.23;100.00;99194.25;112296;1193;61023;-83
2021/09/27 05:11:40;;;;;;;;;;;;;;;14.25;100.00;99197.62;112301;1193;60947;-83
2021/09/27 05:14:27;;;;;;;;;;;;;;;14.24;100.00;99193.31;112317;1193;64050;-84
2021/09/27 05:16:56;;;;;;;;;;;;;;;14.24;100.00;99193.66;112238;1195;61085;-84
2021/09/27 05:19:43;;;;;;;;;;;;;;;14.22;100.00;99192.38;112333;1193;61062;-84
2021/09/27 05:22:30;;;;;;;;;;;;;;;14.22;100.00;99194.52;112034;1193;66052;-84
2021/09/27 05:25:06;;;;;;;;;;;;;;;14.23;100.00;99197.14;112266;1193;60904;-84
2021/09/27 05:27:51;;;;;;;;;;;;;;;14.26;100.00;99197.96;112274;1193;63855;-85
2021/09/27 05:30:21;;;;;;;;;;;;;;;14.27;100.00;99195.53;112323;1193;61074;-83
2021/09/27 05:33:06;;;;;;;;;;;;;;;14.27;100.00;99194.31;112323;1193;61693;-84
2021/09/27 05:35:42;;;;;;;;;;;;;;;14.25;100.00;99199.65;112326;1193;64666;-84
2021/09/27 05:38:09;;;;;;;;;;;;;;;14.26;100.00;99203.48;112268;1193;60999;-84
2021/09/27 05:40:45;;;;;;;;;;;;;;;14.25;100.00;99196.94;112325;1193;63656;-83
2021/09/27 05:43:23;;;;;;;;;;;;;;;14.27;100.00;99193.58;112274;1195;60959;-83
2021/09/27 05:45:52;;;;;;;;;;;;;;;14.30;100.00;99194.63;112319;1193;61055;-83
2021/09/27 05:48:26;;;;;;;;;;;;;;;14.31;100.00;99193.84;112335;1193;66141;-83
2021/09/27 05:51:13;;;;;;;;;;;;;;;14.34;100.00;99193.91;112304;1193;61013;-83
2021/09/27 05:53:40;;;;;;;;;;;;;;;14.38;100.00;99195.07;112271;1193;63821;-85
2021/09/27 05:56:29;;;;;;;;;;;;;;;14.38;100.00;99195.03;112287;1193;61029;-83
2021/09/27 05:59:11;;;;;;;;;;;;;;;14.37;100.00;99193.52;112304;1193;61119;-83
2021/09/27 06:02:02;;;;;;;;;;;;;;;14.30;100.00;99194.94;112286;1193;66026;-84
2021/09/27 06:04:42;;;;;;;;;;;;;;;14.26;100.00;99199.38;112264;1193;61039;-84
2021/09/27 06:07:09;;;;;;;;;;;;;;;14.23;100.00;99202.47;112282;1193;62629;-84
2021/09/27 06:09:56;;;;;;;;;;;;;;;14.21;100.00;99205.88;112315;1193;60978;-84
2021/09/27 06:12:22;;;;;;;;;;;;;;;14.21;100.00;99206.55;112334;1193;61049;-84
2021/09/27 06:14:50;;;;;;;;;;;;;;;14.23;100.00;99205.64;112326;1193;60972;-85
2021/09/27 06:17:28;;;;;;;;;;;;;;;14.28;100.00;99202.94;112349;1193;61007;-84
2021/09/27 06:19:55;;;;;;;;;;;;;;;14.36;100.00;99199.16;112215;1193;62736;-84
2021/09/27 06:22:24;;;;;;;;;;;;;;;14.43;100.00;99199.45;112321;1193;61048;-84
2021/09/27 06:25:10;;;;;;;;;;;;;;;14.51;100.00;99197.44;112285;1193;60949;-84
2021/09/27 06:28:02;;;;;;;;;;;;;;;14.62;100.00;99197.11;112314;1193;64669;-84
2021/09/27 06:30:47;;;;;;;;;;;;;;;14.72;100.00;99197.87;112264;1193;60933;-85
2021/09/27 06:33:43;;;;;;;;;;;;;;;14.78;100.00;99198.85;112315;1193;63994;-83
2021/09/27 06:36:12;;;;;;;;;;;;;;;14.80;100.00;99196.19;111832;1198;61071;-85
2021/09/27 06:38:39;;;;;;;;;;;;;;;14.75;100.00;99196.36;112324;1193;61007;-85
2021/09/27 06:41:08;;;;;;;;;;;;;;;14.71;100.00;99199.73;112327;1193;66055;-85
2021/09/27 06:43:35;;;;;;;;;;;;;;;14.73;100.00;99198.70;112310;1193;61048;-84
2021/09/27 06:46:01;;;;;;;;;;;;;;;14.74;100.00;99201.29;112345;1193;63920;-83
2021/09/27 06:48:28;;;;;;;;;;;;;;;14.77;100.00;99199.69;112280;1193;60949;-83
2021/09/27 06:50:55;;;;;;;;;;;;;;;14.81;100.00;99197.38;112312;1193;61058;-83
2021/09/27 06:53:24;;;;;;;;;;;;;;;14.85;100.00;99195.73;112344;1193;64371;-84
2021/09/27 06:55:52;;;;;;;;;;;;;;;14.91;100.00;99196.36;112276;1193;61056;-84
2021/09/27 06:58:21;;;;;;;;;;;;;;;14.96;100.00;99195.09;112265;1193;62894;-84
2021/09/27 07:00:56;;;;;;;;;;;;;;;14.97;100.00;99193.23;112265;1193;61063;-85
2021/09/27 07:03:22;;;;;;;;;;;;;;;15.00;100.00;99196.65;112331;1193;61238;-85
2021/09/27 07:05:49;;;;;;;;;;;;;;;15.04;100.00;99196.05;112247;1193;66087;-85
2021/09/27 07:08:18;;;;;;;;;;;;;;;15.07;100.00;99194.64;112287;1193;61071;-85
2021/09/27 07:10:45;;;;;;;;;;;;;;;15.08;100.00;99196.56;112263;1193;63994;-84
2021/09/27 07:13:14;;;;;;;;;;;;;;;15.07;100.00;99198.46;112254;1193;61010;-86
2021/09/27 07:15:41;;;;;;;;;;;;;;;15.04;100.00;99197.27;112337;1193;61132;-87
2021/09/27 07:18:08;;;;;;;;;;;;;;;14.98;100.00;99197.75;112321;1193;65812;-84
2021/09/27 07:20:34;;;;;;;;;;;;;;;14.93;100.00;99198.11;112275;1193;60971;-84
2021/09/27 07:23:01;;;;;;;;;;;;;;;14.91;100.00;99197.97;112322;1193;61026;-84
2021/09/27 07:25:28;;;;;;;;;;;;;;;14.88;100.00;99197.27;112286;1193;61051;-86
2021/09/27 07:27:55;;;;;;;;;;;;;;;14.89;100.00;99195.80;112306;1193;61017;-85
2021/09/27 07:30:22;;;;;;;;;;;;;;;14.93;100.00;99198.11;112315;1193;66006;-84
2021/09/27 07:32:48;;;;;;;;;;;;;;;14.98;100.00;99196.13;112311;1193;61080;-85
2021/09/27 07:35:17;;;;;;;;;;;;;;;15.01;100.00;99195.02;112279;1193;62633;-85
2021/09/27 07:37:43;;;;;;;;;;;;;;;15.05;100.00;99193.77;112287;1193;61052;-85
2021/09/27 07:40:13;;;;;;;;;;;;;;;15.13;100.00;99193.79;112345;1193;60959;-85
2021/09/27 07:42:40;;;;;;;;;;;;;;;15.21;100.00;99193.66;112272;1193;66030;-85
2021/09/27 07:45:07;;;;;;;;;;;;;;;15.29;100.00;99194.46;112223;1193;61115;-83
2021/09/27 07:47:34;;;;;;;;;;;;;;;15.39;100.00;99195.64;112210;1195;64019;-84
2021/09/27 07:50:00;;;;;;;;;;;;;;;15.47;100.00;99191.17;112261;1193;60985;-84
2021/09/27 07:52:27;;;;;;;;;;;;;;;15.54;99.99;99190.41;112180;1193;61033;-84
2021/09/27 07:54:53;;;;;;;;;;;;;;;15.63;99.79;99190.55;112221;1193;60640;-84
2021/09/27 07:57:20;;;;;;;;;;;;;;;15.71;99.84;99187.05;112268;1193;61062;-84
2021/09/27 07:59:47;;;;;;;;;;;;;;;15.78;99.42;99185.90;112273;1193;61029;-84
2021/09/27 08:02:18;;;;;;;;;;;;;;;15.85;99.16;99186.71;112234;1193;61027;-85
2021/09/27 08:04:44;;;;;;;;;;;;;;;15.95;98.69;99187.48;112267;1193;60984;-84
2021/09/27 08:07:11;;;;;;;;;;;;;;;15.99;98.13;99187.14;112189;1193;65963;-84
2021/09/27 08:09:38;;;;;;;;;;;;;;;16.04;98.16;99189.20;112311;1193;61055;-84
2021/09/27 08:12:05;;;;;;;;;;;;;;;16.15;98.06;99187.55;112239;1193;63652;-84
2021/09/27 08:14:31;;;;;;;;;;;;;;;16.19;97.51;99188.94;112308;1193;61087;-84
2021/09/27 08:16:58;;;;;;;;;;;;;;;16.21;97.01;99192.01;112310;1193;61058;-84
2021/09/27 08:19:25;;;;;;;;;;;;;;;16.22;96.77;99194.28;112268;1193;64682;-84
2021/09/27 08:21:52;;;;;;;;;;;;;;;16.27;96.89;99192.23;112258;1193;60927;-83
2021/09/27 08:24:19;;;;;;;;;;;;;;;16.33;96.99;99194.44;112235;1193;62718;-85
2021/09/27 08:26:45;;;;;;;;;;;;;;;16.36;96.76;99192.37;112295;1193;61062;-84
2021/09/27 08:29:12;;;;;;;;;;;;;;;16.44;96.50;99191.13;112286;1193;61026;-85
2021/09/27 08:31:40;;;;;;;;;;;;;;;16.47;96.17;99191.73;112305;1193;65995;-87
2021/09/27 08:34:07;;;;;;;;;;;;;;;16.45;95.81;99192.27;112260;1193;60982;-85
2021/09/27 08:36:34;;;;;;;;;;;;;;;16.39;96.04;99189.44;112304;1193;61044;-87
2021/09/27 08:39:02;;;;;;;;;;;;;;;16.42;96.49;99190.55;112209;1193;61011;-85
2021/09/27 08:41:32;;;;;;;;;;;;;;;16.56;96.45;99194.58;112277;1193;60975;-86
2021/09/27 08:44:17;;;;;;;;;;;;;;;16.64;96.23;99194.23;112280;1193;66082;-85
2021/09/27 08:46:48;;;;;;;;;;;;;;;16.69;96.01;99193.96;112175;1193;61023;-83
2021/09/27 08:49:20;;;;;;;;;;;;;;;16.74;96.02;99194.92;112229;1193;62750;-88
2021/09/27 08:51:47;;;;;;;;;;;;;;;16.76;95.82;99199.59;112275;1193;60979;-85
2021/09/27 08:54:15;;;;;;;;;;;;;;;16.76;95.48;99201.56;112304;1193;60994;-88
2021/09/27 08:56:49;;;;;;;;;;;;;;;16.70;95.26;99198.80;112283;1193;64659;-87
2021/09/27 08:59:27;;;;;;;;;;;;;;;16.70;95.22;99196.69;112275;1193;60975;-84
2021/09/27 09:02:13;;;;;;;;;;;;;;;16.70;94.85;99196.02;112274;1193;65054;-87
2021/09/27 09:04:49;;;;;;;;;;;;;;;16.69;94.69;99198.75;112275;1193;61059;-87
2021/09/27 09:07:17;;;;;;;;;;;;;;;16.79;95.10;99195.76;112297;1193;60963;-84
2021/09/27 09:09:50;;;;;;;;;;;;;;;16.91;94.88;99192.35;112317;1193;64650;-85
2021/09/27 09:12:17;;;;;;;;;;;;;;;17.00;94.46;99190.64;112251;1193;60982;-86
2021/09/27 09:15:06;;;;;;;;;;;;;;;17.12;94.34;99195.05;112250;1193;63662;-85
2021/09/27 09:17:46;;;;;;;;;;;;;;;17.27;94.17;99190.52;112283;1193;60981;-86
2021/09/27 09:20:15;;;;;;;;;;;;;;;17.40;93.50;99188.76;112303;1193;61052;-84
2021/09/27 09:22:43;;;;;;;;;;;;;;;17.50;93.16;99195.04;112307;1193;65978;-84
2021/09/27 09:25:26;;;;;;;;;;;;;;;17.47;92.39;99195.85;112334;1193;60997;-84
2021/09/27 09:27:53;;;;;;;;;;;;;;;17.33;91.91;99193.02;112274;1193;65050;-84
2021/09/27 09:30:22;;;;;;;;;;;;;;;17.23;92.10;99189.29;112293;1193;61012;-84
2021/09/27 09:32:51;;;;;;;;;;;;;;;17.17;92.20;99184.06;112244;1193;60950;-84
2021/09/27 09:38:41;;;;;;;;;;;;;;;17.23;92.75;99185.13;112307;1193;61163;-84
2021/09/27 09:41:08;;;;;;;;;;;;;;;17.22;92.49;99186.88;112261;1193;64677;-83
2021/09/27 09:43:36;;;;;;;;;;;;;;;17.13;92.18;99186.23;112245;1193;61039;-84
2021/09/27 09:46:03;;;;;;;;;;;;;;;17.08;92.18;99188.98;112301;1193;61049;-84
2021/09/27 09:48:29;;;;;;;;;;;;;;;17.08;92.06;99187.04;112308;1193;66020;-84
2021/09/27 09:50:57;;;;;;;;;;;;;;;17.14;92.14;99190.25;112281;1193;61161;-84
2021/09/27 09:53:26;;;;;;;;;;;;;;;17.21;92.00;99187.30;112285;1193;64006;-84
2021/09/27 09:55:59;;;;;;;;;;;;;;;17.21;91.53;99187.11;112313;1193;61055;-83
2021/09/27 09:58:46;;;;;;;;;;;;;;;17.17;91.48;99190.18;112313;1193;61404;-83
2021/09/27 10:01:13;;;;;;;;;;;;;;;17.19;91.44;99190.30;112298;1193;64700;-84
2021/09/27 10:03:45;;;;;;;;;;;;;;;17.24;91.11;99188.95;112268;1193;61038;-84
2021/09/27 10:06:24;;;;;;;;;;;;;;;17.28;90.97;99189.32;112308;1193;72190;-85
2021/09/27 10:08:56;;;;;;;;;;;;;;;17.40;90.67;99186.09;112302;1193;61013;-84
2021/09/27 10:11:34;;;;;;;;;;;;;;;17.59;90.56;99176.42;112331;1193;61035;-84
2021/09/27 10:14:27;;;;;;;;;;;;;;;17.87;90.48;99176.17;112355;1193;64649;-85
2021/09/27 10:16:56;;;;;;;;;;;;;;;18.14;90.43;99179.02;112298;1193;61023;-85
2021/09/27 10:19:26;;;;;;;;;;;;;;;18.29;89.81;99178.47;112224;1193;63676;-85
2021/09/27 10:21:55;;;;;;;;;;;;;;;18.30;89.53;99179.80;112334;1193;61006;-87
2021/09/27 10:24:30;;;;;;;;;;;;;;;18.22;89.15;99179.28;112305;1193;61696;-87
2021/09/27 10:26:58;;;;;;;;;;;;;;;18.14;89.01;99178.25;112291;1193;65750;-86
2021/09/27 10:29:27;;;;;;;;;;;;;;;18.09;88.65;99175.00;112229;1193;61080;-86
2021/09/27 10:32:10;;;;;;;;;;;;;;;18.06;88.20;99174.56;112297;1193;62739;-84
2021/09/27 10:34:37;;;;;;;;;;;;;;;18.06;88.32;99178.17;112321;1193;61591;-85
2021/09/27 10:37:14;;;;;;;;;;;;;;;18.10;88.39;99178.13;112267;1193;61002;-85
2021/09/27 10:39:40;;;;;;;;;;;;;;;18.23;88.25;99174.39;112313;1193;65746;-84
2021/09/27 10:42:12;;;;;;;;;;;;;;;18.35;88.23;99175.04;112297;1193;60934;-84
2021/09/27 10:44:43;;;;;;;;;;;;;;;18.46;87.77;99174.84;112336;1193;64071;-85
2021/09/27 10:47:12;;;;;;;;;;;;;;;18.57;87.43;99175.71;112287;1193;61010;-84
2021/09/27 10:49:48;;;;;;;;;;;;;;;18.65;86.94;99180.73;112189;1193;61049;-85
2021/09/27 10:52:17;;;;;;;;;;;;;;;18.73;86.91;99180.85;112204;1193;64786;-83
2021/09/27 10:54:54;;;;;;;;;;;;;;;18.80;87.01;99177.67;112199;1193;61086;-86
2021/09/27 10:57:21;;;;;;;;;;;;;;;18.85;86.58;99174.14;112250;1193;64982;-84
2021/09/27 10:59:59;;;;;;;;;;;;;;;18.88;86.28;99172.19;112299;1193;61596;-84
2021/09/27 11:02:34;;;;;;;;;;;;;;;18.97;85.82;99170.43;112272;1195;60955;-84
2021/09/27 11:05:05;;;;;;;;;;;;;;;19.05;85.61;99168.88;112297;1193;67004;-84
2021/09/27 11:07:35;;;;;;;;;;;;;;;19.15;85.61;99167.52;112282;1193;61171;-84
2021/09/27 11:10:12;;;;;;;;;;;;;;;19.30;85.71;99170.05;112323;1193;63993;-84
2021/09/27 11:12:43;;;;;;;;;;;;;;;19.44;85.76;99168.77;112329;1193;61081;-84
2021/09/27 11:15:20;;;;;;;;;;;;;;;19.57;85.15;99165.81;112395;1193;61046;-84
2021/09/27 11:17:48;;;;;;;;;;;;;;;19.61;84.65;99167.04;112306;1193;65686;-84
2021/09/27 11:20:22;;;;;;;;;;;;;;;19.58;84.44;99167.78;112302;1193;61513;-84
2021/09/27 11:22:54;;;;;;;;;;;;;;;19.59;84.48;99168.04;112244;1196;64027;-84
2021/09/27 11:25:20;;;;;;;;;;;;;;;19.56;84.08;99165.55;112291;1195;61619;-84
2021/09/27 11:28:05;;;;;;;;;;;;;;;19.48;83.91;99167.30;112312;1195;61055;-84
2021/09/27 11:30:37;;;;;;;;;;;;;;;19.33;83.93;99165.37;112246;1195;67029;-84
2021/09/27 11:33:05;;;;;;;;;;;;;;;19.27;83.97;99164.36;112260;1196;60952;-85
2021/09/27 11:35:34;;;;;;;;;;;;;;;19.32;84.34;99161.91;112269;1195;64903;-85
2021/09/27 11:38:07;;;;;;;;;;;;;;;19.55;84.44;99160.66;112304;1194;61528;-85
2021/09/27 11:40:35;;;;;;;;;;;;;;;19.74;84.00;99152.64;112311;1193;61030;-85
2021/09/27 11:43:15;;;;;;;;;;;;;;;19.69;83.77;99146.79;112315;1196;64683;-85
2021/09/27 11:45:48;;;;;;;;;;;;;;;19.60;83.81;99143.91;112294;1195;61735;-85
2021/09/27 11:48:17;;;;;;;;;;;;;;;19.51;83.52;99138.56;112361;1195;64006;-85
2021/09/27 11:50:49;;;;;;;;;;;;;;;19.36;83.77;99136.50;112239;1193;61094;-84
2021/09/27 11:53:26;;;;;;;;;;;;;;;19.36;84.35;99134.18;112269;1196;61043;-85
2021/09/27 11:56:14;;;;;;;;;;;;;;;19.41;84.66;99131.94;112239;1195;66031;-84
2021/09/27 11:58:47;;;;;;;;;;;;;;;19.56;84.61;99129.00;112314;1195;61065;-84
2021/09/27 12:01:22;;;;;;;;;;;;;;;19.58;84.00;99129.33;112202;1196;63766;-84
2021/09/27 12:03:54;;;;;;;;;;;;;;;19.57;83.97;99123.48;112259;1195;61119;-85
2021/09/27 12:06:24;;;;;;;;;;;;;;;19.63;84.03;99121.03;112122;1195;61144;-85
2021/09/27 12:08:59;;;;;;;;;;;;;;;19.67;83.71;99119.63;112246;1195;66022;-85
2021/09/27 12:11:26;;;;;;;;;;;;;;;19.68;83.61;99118.11;112329;1194;60969;-84
2021/09/27 12:13:55;;;;;;;;;;;;;;;19.67;83.39;99117.96;112290;1196;62351;-85
2021/09/27 12:16:24;;;;;;;;;;;;;;;19.59;82.88;99111.77;112261;1195;60975;-85
2021/09/27 12:18:56;;;;;;;;;;;;;;;19.56;83.44;99111.51;112378;1194;61160;-84
2021/09/27 12:21:29;;;;;;;;;;;;;;;19.59;83.55;99106.86;112334;1196;66044;-85
2021/09/27 12:24:08;;;;;;;;;;;;;;;19.67;83.75;99108.64;112274;1195;61065;-85
2021/09/27 12:26:46;;;;;;;;;;;;;;;19.71;83.65;99110.90;112203;1195;64037;-85
2021/09/27 12:29:15;;;;;;;;;;;;;;;19.77;83.88;99109.73;112307;1195;61061;-85
2021/09/27 12:31:47;;;;;;;;;;;;;;;19.84;83.56;99109.77;112302;1196;60946;-85
2021/09/27 12:34:17;;;;;;;;;;;;;;;19.89;83.81;99109.77;112289;1196;66718;-85
2021/09/27 12:36:44;;;;;;;;;;;;;;;19.97;83.54;99104.98;112311;1195;61030;-85
2021/09/27 12:39:10;;;;;;;;;;;;;;;19.99;83.15;99101.55;112296;1195;61513;-85
2021/09/27 12:41:51;;;;;;;;;;;;;;;20.00;83.10;99101.11;112227;1194;60957;-85
2021/09/27 12:44:21;;;;;;;;;;;;;;;20.02;83.11;99100.02;112292;1195;61019;-85
2021/09/27 12:46:49;;;;;;;;;;;;;;;20.00;82.69;99100.68;112254;1194;64688;-85
2021/09/27 12:49:19;;;;;;;;;;;;;;;19.97;82.52;99099.64;112311;1196;61132;-84
2021/09/27 12:51:49;;;;;;;;;;;;;;;19.91;82.35;99099.64;112291;1194;63982;-84
2021/09/27 12:54:23;;;;;;;;;;;;;;;19.86;82.61;99096.36;112280;1195;61144;-84
2021/09/27 12:56:50;;;;;;;;;;;;;;;19.92;82.96;99094.14;112299;1195;61054;-84
2021/09/27 12:59:18;;;;;;;;;;;;;;;19.99;82.97;99093.37;112265;1196;67017;-86
2021/09/27 13:01:47;;;;;;;;;;;;;;;20.04;82.95;99085.02;112290;1195;61094;-84